createdAt,value
2023-10-06T00:01:22.073Z,102336.03
2023-10-06T00:10:30.943Z,102314.44
2023-10-06T00:13:01.667Z,102312.81
2023-10-06T00:29:41.909Z,102357.44
2023-10-06T00:35:36.813Z,102340.31
2023-10-06T00:38:39.995Z,102317.69
2023-10-06T00:41:18.311Z,102313.09
2023-10-06T00:47:01.115Z,102332.28
2023-10-06T00:52:16.922Z,102321.78
2023-10-06T00:54:52.005Z,102306.00
2023-10-06T01:00:09.053Z,102334.06
2023-10-06T01:02:39.673Z,102330.84
2023-10-06T01:08:14.243Z,102309.94
2023-10-06T01:10:51.115Z,102285.03
2023-10-06T01:13:30.207Z,102291.88
2023-10-06T01:16:00.453Z,102272.25
2023-10-06T01:18:42.141Z,102274.28
2023-10-06T01:21:32.023Z,102307.09
2023-10-06T01:24:24.262Z,102288.06
2023-10-06T01:27:10.267Z,102299.63
2023-10-06T01:35:15.437Z,102308.75
2023-10-06T01:37:58.985Z,102271.00
2023-10-06T01:40:35.979Z,102262.44
2023-10-06T01:46:13.118Z,102250.50
2023-10-06T01:48:46.938Z,102273.97
2023-10-06T01:56:52.064Z,102292.31
2023-10-06T01:59:23.304Z,102258.09
2023-10-06T02:04:47.407Z,102249.09
2023-10-06T02:10:24.129Z,102241.59
2023-10-06T02:15:41.968Z,102244.16
2023-10-06T02:18:21.160Z,102261.97
2023-10-06T02:21:04.047Z,102257.97
2023-10-06T02:27:12.084Z,102277.41
2023-10-06T02:29:57.846Z,102230.91
2023-10-06T02:36:07.972Z,102260.47
2023-10-06T02:38:58.624Z,102236.41
2023-10-06T02:41:35.892Z,102242.63
2023-10-06T02:44:11.904Z,102261.31
2023-10-06T02:53:02.105Z,102260.69
2023-10-06T02:55:35.300Z,102232.00
2023-10-06T02:58:17.808Z,102219.13
2023-10-06T03:01:00.763Z,102234.28
2023-10-06T03:03:45.834Z,102217.00
2023-10-06T03:06:24.987Z,102238.44
2023-10-06T03:17:32.384Z,102245.19
2023-10-06T03:20:33.464Z,102247.69
2023-10-06T03:23:48.827Z,102250.44
2023-10-06T03:26:41.013Z,102233.31
2023-10-06T03:29:37.991Z,102218.72
2023-10-06T03:32:13.534Z,102209.84
2023-10-06T03:34:48.173Z,102210.38
2023-10-06T03:37:37.274Z,102209.56
2023-10-06T03:40:31.918Z,102235.16
2023-10-06T03:43:07.684Z,102229.81
2023-10-06T03:45:48.323Z,102184.84
2023-10-06T03:48:28.131Z,102234.41
2023-10-06T03:51:03.465Z,102204.00
2023-10-06T03:53:36.412Z,102197.88
2023-10-06T03:56:28.000Z,102202.28
2023-10-06T03:59:14.726Z,102219.44
2023-10-06T04:01:52.197Z,102188.66
2023-10-06T04:04:25.596Z,102200.56
2023-10-06T04:07:05.007Z,102204.53
2023-10-06T04:09:33.374Z,102199.72
2023-10-06T04:12:14.689Z,102180.47
2023-10-06T04:14:48.203Z,102190.75
2023-10-06T04:17:25.181Z,102169.22
2023-10-06T04:20:03.324Z,102201.25
2023-10-06T04:22:46.070Z,102203.28
2023-10-06T04:25:22.670Z,102167.25
2023-10-06T04:30:45.226Z,102191.91
2023-10-06T04:33:24.560Z,102166.41
2023-10-06T04:35:57.767Z,102153.91
2023-10-06T04:38:37.193Z,102177.84
2023-10-06T04:41:10.787Z,102165.53
2023-10-06T04:44:04.850Z,102201.25
2023-10-06T04:46:34.945Z,102193.34
2023-10-06T04:52:01.259Z,102196.22
2023-10-06T04:57:19.643Z,102167.78
2023-10-06T05:00:30.339Z,102209.56
2023-10-06T05:03:02.752Z,102162.19
2023-10-06T05:05:57.591Z,102172.56
2023-10-06T05:08:28.026Z,102189.81
2023-10-06T05:11:06.274Z,102171.25
2023-10-06T05:13:41.715Z,102193.75
2023-10-06T05:16:21.163Z,102167.06
2023-10-06T05:18:54.923Z,102170.09
2023-10-06T05:21:32.176Z,102177.47
2023-10-06T05:24:10.398Z,102166.97
2023-10-06T05:26:52.409Z,102132.97
2023-10-06T05:29:28.050Z,102162.44
2023-10-06T05:32:06.721Z,102154.50
2023-10-06T05:34:49.751Z,102184.84
2023-10-06T05:37:26.016Z,102140.81
2023-10-06T05:40:00.241Z,102124.19
2023-10-06T05:42:35.018Z,102148.41
2023-10-06T05:45:39.004Z,102157.19
2023-10-06T05:48:18.862Z,102144.97
2023-10-06T05:50:56.101Z,102180.97
2023-10-06T05:53:43.543Z,102162.78
2023-10-06T05:56:22.842Z,102179.81
2023-10-06T05:59:01.109Z,102129.31
2023-10-06T06:04:23.060Z,102129.31
2023-10-06T06:06:59.424Z,102154.25
2023-10-06T06:15:05.179Z,102168.94
2023-10-06T06:24:01.591Z,102173.38
2023-10-06T06:32:21.257Z,102145.94
2023-10-06T06:34:51.476Z,102162.13
2023-10-06T06:37:32.049Z,102156.47
2023-10-06T06:40:02.468Z,102135.47
2023-10-06T06:42:39.112Z,102145.88
2023-10-06T06:45:08.106Z,102164.53
2023-10-06T06:48:00.728Z,102185.53
2023-10-06T06:50:35.097Z,102181.56
2023-10-06T06:53:14.135Z,102173.00
2023-10-06T06:55:47.115Z,102189.19
2023-10-06T06:58:25.007Z,102150.84
2023-10-06T07:00:55.174Z,102186.75
2023-10-06T07:03:31.184Z,102159.13
2023-10-06T07:06:01.953Z,102180.97
2023-10-06T07:08:40.375Z,102189.66
2023-10-06T07:11:19.966Z,102183.47
2023-10-06T07:14:04.253Z,102175.50
2023-10-06T07:16:34.955Z,102186.34
2023-10-06T07:21:49.987Z,102139.53
2023-10-06T07:24:46.303Z,102164.59
2023-10-06T07:27:21.259Z,102177.59
2023-10-06T07:29:56.429Z,102147.47
2023-10-06T07:32:31.112Z,102153.69
2023-10-06T07:35:04.174Z,102149.19
2023-10-06T07:40:31.394Z,102172.00
2023-10-06T07:43:11.863Z,102159.91
2023-10-06T07:45:48.978Z,102166.53
2023-10-06T07:48:32.138Z,102201.56
2023-10-06T07:51:27.273Z,102209.41
2023-10-06T07:54:01.196Z,102209.06
2023-10-06T07:56:37.144Z,102177.47
2023-10-06T08:02:12.086Z,102193.78
2023-10-06T08:04:50.993Z,102194.19
2023-10-06T08:07:30.751Z,102163.94
2023-10-06T08:10:13.269Z,102168.78
2023-10-06T08:12:44.088Z,102150.03
2023-10-06T08:15:32.756Z,102162.63
2023-10-06T08:18:22.547Z,102196.03
2023-10-06T08:21:03.181Z,102190.22
2023-10-06T08:26:37.433Z,102171.28
2023-10-06T08:29:21.096Z,102183.44
2023-10-06T08:31:52.231Z,102210.38
2023-10-06T08:34:30.460Z,102201.50
2023-10-06T08:37:15.927Z,102162.03
2023-10-06T08:39:55.049Z,102156.56
2023-10-06T08:42:33.298Z,102166.09
2023-10-06T08:45:05.463Z,102163.19
2023-10-06T08:47:59.952Z,102140.81
2023-10-06T08:50:39.314Z,102139.81
2023-10-06T08:53:25.252Z,102185.16
2023-10-06T08:56:10.715Z,102135.69
2023-10-06T08:58:52.755Z,102176.38
2023-10-06T09:01:30.088Z,102142.19
2023-10-06T09:04:16.187Z,102151.34
2023-10-06T09:09:57.103Z,102151.50
2023-10-06T09:12:34.929Z,102146.59
2023-10-06T09:15:34.508Z,102155.91
2023-10-06T09:18:14.098Z,102148.31
2023-10-06T09:20:49.389Z,102151.84
2023-10-06T09:23:48.084Z,102177.75
2023-10-06T09:26:34.990Z,102139.16
2023-10-06T09:29:20.475Z,102139.25
2023-10-06T09:31:55.980Z,102142.69
2023-10-06T09:34:33.319Z,102169.44
2023-10-06T09:37:22.975Z,102146.13
2023-10-06T09:42:55.765Z,102140.88
2023-10-06T09:45:44.812Z,102137.88
2023-10-06T09:48:19.975Z,102142.25
2023-10-06T09:50:59.169Z,102154.47
2023-10-06T09:53:37.872Z,102146.13
2023-10-06T09:56:36.152Z,102131.91
2023-10-06T10:02:35.973Z,102111.41
2023-10-06T10:05:08.305Z,102145.63
2023-10-06T10:07:55.028Z,102112.22
2023-10-06T10:10:29.108Z,102127.34
2023-10-06T10:13:43.233Z,102118.34
2023-10-06T10:16:18.282Z,102125.09
2023-10-06T10:19:07.221Z,102128.88
2023-10-06T10:21:57.394Z,102083.22
2023-10-06T10:25:11.588Z,102101.28
2023-10-06T10:27:55.111Z,102081.44
2023-10-06T10:31:08.875Z,102080.66
2023-10-06T10:33:54.069Z,102117.00
2023-10-06T10:36:31.173Z,102097.19
2023-10-06T10:39:25.060Z,102098.59
2023-10-06T10:42:02.156Z,102089.41
2023-10-06T10:45:08.356Z,102110.47
2023-10-06T10:47:41.628Z,102107.38
2023-10-06T10:50:25.155Z,102078.00
2023-10-06T10:52:55.115Z,102075.81
2023-10-06T10:55:35.233Z,102083.56
2023-10-06T11:02:13.271Z,102114.00
2023-10-06T11:04:45.377Z,102084.88
2023-10-06T11:08:04.544Z,102100.06
2023-10-06T11:10:52.117Z,102083.28
2023-10-06T11:13:23.262Z,102091.41
2023-10-06T11:16:04.818Z,102070.50
2023-10-06T11:18:39.269Z,102072.81
2023-10-06T11:21:41.394Z,102105.81
2023-10-06T11:24:14.317Z,102085.41
2023-10-06T11:27:09.208Z,102065.94
2023-10-06T11:29:42.089Z,102066.38
2023-10-06T11:32:19.144Z,102072.50
2023-10-06T11:34:50.958Z,102068.66
2023-10-06T11:37:38.051Z,102095.78
2023-10-06T11:40:18.033Z,102100.19
2023-10-06T11:42:52.426Z,102085.28
2023-10-06T11:49:18.706Z,102102.34
2023-10-06T11:51:53.295Z,102075.91
2023-10-06T11:54:32.000Z,102068.09
2023-10-06T11:57:24.504Z,102080.88
2023-10-06T12:00:14.998Z,102101.97
2023-10-06T12:02:51.885Z,102072.97
2023-10-06T12:05:34.281Z,102062.53
2023-10-06T12:08:26.736Z,102090.50
2023-10-06T12:11:14.876Z,102056.16
2023-10-06T12:13:50.184Z,102044.13
2023-10-06T12:16:30.244Z,102050.41
2023-10-06T12:19:16.826Z,102043.22
2023-10-06T12:21:49.328Z,102026.75
2023-10-06T12:24:23.217Z,102041.16
2023-10-06T12:27:03.713Z,102041.22
2023-10-06T12:29:49.982Z,102038.19
2023-10-06T12:32:25.512Z,102036.81
2023-10-06T12:35:02.245Z,102022.34
2023-10-06T12:37:35.193Z,102027.78
2023-10-06T12:40:12.286Z,102013.44
2023-10-06T12:42:58.531Z,102016.22
2023-10-06T12:45:30.471Z,102006.78
2023-10-06T12:48:17.679Z,101995.13
2023-10-06T12:50:55.255Z,102025.06
2023-10-06T12:53:32.852Z,102009.06
2023-10-06T12:56:05.317Z,101999.06
2023-10-06T12:58:39.136Z,101977.81
2023-10-06T13:01:12.200Z,101998.19
2023-10-06T13:03:49.260Z,101979.81
2023-10-06T13:06:17.351Z,101976.59
2023-10-06T13:09:01.278Z,102004.03
2023-10-06T13:11:33.611Z,101981.09
2023-10-06T13:16:58.258Z,101971.38
2023-10-06T13:19:32.095Z,101985.91
2023-10-06T13:22:00.525Z,101972.53
2023-10-06T13:24:36.183Z,101985.31
2023-10-06T13:27:10.301Z,101976.28
2023-10-06T13:32:40.635Z,101969.41
2023-10-06T13:35:29.548Z,101975.63
2023-10-06T13:38:01.223Z,101971.25
2023-10-06T13:40:44.827Z,101980.28
2023-10-06T13:43:19.235Z,101974.56
2023-10-06T13:45:53.204Z,101984.44
2023-10-06T13:48:24.355Z,101980.22
2023-10-06T13:51:00.222Z,101978.50
2023-10-06T13:53:30.929Z,101978.13
2023-10-06T13:56:14.217Z,101990.56
2023-10-06T13:58:44.086Z,101965.13
2023-10-06T14:01:20.456Z,101973.78
2023-10-06T14:03:52.732Z,101971.78
2023-10-06T14:06:36.268Z,101973.41
2023-10-06T14:09:13.258Z,101974.28
2023-10-06T14:11:42.381Z,101961.50
2023-10-06T14:14:45.122Z,101965.91
2023-10-06T14:17:18.160Z,101969.31
2023-10-06T14:19:55.222Z,101971.72
2023-10-06T14:22:26.568Z,101968.31
2023-10-06T14:25:03.338Z,101955.56
2023-10-06T14:27:42.462Z,101960.41
2023-10-06T14:30:25.322Z,101960.22
2023-10-06T14:33:20.380Z,101973.50
2023-10-06T14:36:21.379Z,101980.59
2023-10-06T14:39:14.428Z,101962.28
2023-10-06T14:42:06.335Z,101984.56
2023-10-06T14:44:59.371Z,101995.97
2023-10-06T14:47:34.329Z,101970.75
2023-10-06T14:50:12.021Z,101999.22
2023-10-06T14:52:49.272Z,102009.06
2023-10-06T14:55:30.935Z,101964.97
2023-10-06T14:58:03.275Z,101976.44
2023-10-06T15:00:40.461Z,101968.84
2023-10-06T15:06:06.241Z,101958.31
2023-10-06T15:08:37.238Z,101981.16
2023-10-06T15:11:14.195Z,101981.06
2023-10-06T15:13:59.348Z,101952.03
2023-10-06T15:16:40.869Z,101938.88
2023-10-06T15:19:24.219Z,101965.28
2023-10-06T15:21:56.820Z,101954.09
2023-10-06T15:24:37.688Z,101935.19
2023-10-06T15:27:24.696Z,101944.31
2023-10-06T15:30:04.409Z,101939.91
2023-10-06T15:32:43.395Z,101932.66
2023-10-06T15:35:19.293Z,101922.31
2023-10-06T15:38:02.327Z,101925.88
2023-10-06T15:40:49.025Z,101914.53
2023-10-06T15:43:24.598Z,101934.84
2023-10-06T15:46:08.689Z,101930.88
2023-10-06T15:48:40.001Z,101936.13
2023-10-06T15:51:20.116Z,101948.19
2023-10-06T15:53:58.244Z,101930.72
2023-10-06T15:56:39.138Z,101924.50
2023-10-06T15:59:16.482Z,101944.53
2023-10-06T16:01:54.125Z,101924.22
2023-10-06T16:04:35.237Z,101957.88
2023-10-06T16:07:17.301Z,101935.72
2023-10-06T16:09:51.573Z,101924.09
2023-10-06T16:12:27.795Z,101929.19
2023-10-06T16:14:59.142Z,101927.06
2023-10-06T16:17:39.180Z,101930.78
2023-10-06T16:20:08.097Z,101940.44
2023-10-06T16:22:49.458Z,101924.09
2023-10-06T16:25:25.662Z,101952.47
2023-10-06T16:28:10.209Z,101947.53
2023-10-06T16:30:44.565Z,101913.63
2023-10-06T16:33:26.275Z,101914.88
2023-10-06T16:35:59.239Z,101930.09
2023-10-06T16:38:34.491Z,101906.38
2023-10-06T16:41:04.976Z,101902.97
2023-10-06T16:43:54.547Z,101914.63
2023-10-06T16:46:21.929Z,101919.00
2023-10-06T16:48:58.405Z,101905.66
2023-10-06T16:51:34.004Z,101906.22
